Time;durP1;ratioP1;P1;durP2;ratioP2;P2;SDS_P1;SDS_P2;PMS_P1;PMS_P2;Temp;Humidity;BMP_temperature;BMP_pressure;BME280_temperature;BME280_humidity;BME280_pressure;Samples;Min_cycle;Max_cycle;Signal;HPM_P1;HPM_P2
2024/01/29 00:02:07;;;;;;;5.75;2.85;;;;;;;-1.97;74.33;101252.00;4985833;28;20038;-56
2024/01/29 00:04:33;;;;;;;5.53;2.92;;;;;;;-2.30;74.50;101207.28;4961962;28;20065;-51
2024/01/29 00:06:59;;;;;;;7.47;3.50;;;;;;;-2.06;74.86;101238.88;4993822;28;20084;-52
2024/01/29 00:09:25;;;;;;;4.55;2.33;;;;;;;-1.98;75.09;101247.69;4980597;28;20164;-51
2024/01/29 00:11:51;;;;;;;7.55;2.85;;;;;;;-2.01;74.85;101247.59;4977469;28;20521;-55
2024/01/29 00:14:16;;;;;;;7.03;2.45;;;;;;;-1.98;74.94;101244.28;4963940;28;20046;-56
2024/01/29 00:16:43;;;;;;;7.30;3.22;;;;;;;-2.03;74.78;101221.16;4995533;28;20048;-53
2024/01/29 00:19:09;;;;;;;5.85;2.70;;;;;;;-2.02;74.68;101240.75;4998630;28;20125;-52
2024/01/29 00:21:35;;;;;;;6.15;2.83;;;;;;;-2.10;74.81;101231.06;4995568;28;20581;-56
2024/01/29 00:24:01;;;;;;;8.10;2.97;;;;;;;-2.31;75.11;101203.03;4979324;28;20042;-57
2024/01/29 00:26:27;;;;;;;7.45;3.40;;;;;;;-2.31;75.47;101201.34;5006188;28;20049;-54
2024/01/29 00:28:54;;;;;;;6.07;2.63;;;;;;;-2.04;75.28;101255.09;4985805;28;20079;-54
2024/01/29 00:31:22;;;;;;;6.55;3.38;;;;;;;-2.32;75.23;101208.91;4970110;28;20041;-56
2024/01/29 00:33:48;;;;;;;5.43;2.95;;;;;;;-2.08;75.08;101247.25;4986206;28;20138;-56
2024/01/29 00:36:15;;;;;;;7.78;3.20;;;;;;;-2.11;75.04;101239.50;4953643;28;20058;-55
2024/01/29 00:38:41;;;;;;;8.02;3.60;;;;;;;-2.12;75.03;101246.28;4979014;28;20123;-55
2024/01/29 00:41:07;;;;;;;4.13;2.28;;;;;;;-1.93;75.14;101258.94;5005281;28;20038;-58
2024/01/29 00:43:33;;;;;;;5.28;2.40;;;;;;;-1.95;74.96;101257.16;4989356;28;20038;-57
2024/01/29 00:45:59;;;;;;;11.05;4.45;;;;;;;-1.98;74.87;101257.00;5005885;28;20599;-58
2024/01/29 00:48:25;;;;;;;5.85;2.67;;;;;;;-2.16;75.11;101224.03;5006602;28;20064;-55
2024/01/29 00:50:52;;;;;;;6.95;2.70;;;;;;;-2.18;75.19;101228.19;5006602;28;20077;-55
2024/01/29 00:53:19;;;;;;;8.25;3.90;;;;;;;-1.97;75.04;101274.06;4988753;28;20044;-56
2024/01/29 00:55:47;;;;;;;3.50;2.08;;;;;;;-2.24;74.99;101233.88;4982983;28;20081;-52
2024/01/29 00:58:14;;;;;;;8.90;4.13;;;;;;;-1.98;74.85;101267.22;4985734;28;20038;-53
2024/01/29 01:00:41;;;;;;;12.90;5.45;;;;;;;-1.84;74.73;101264.44;4986856;28;20355;-54
2024/01/29 01:03:08;;;;;;;8.38;3.78;;;;;;;-2.01;75.12;101237.41;4969391;28;20050;-53
2024/01/29 01:05:34;;;;;;;7.38;3.47;;;;;;;-1.85;74.77;101264.38;4984197;28;20073;-53
2024/01/29 01:08:00;;;;;;;5.88;2.22;;;;;;;-1.97;74.64;101258.75;4994626;28;20045;-52
2024/01/29 01:10:26;;;;;;;7.88;2.97;;;;;;;-2.09;74.94;101251.47;4982773;28;20041;-53
2024/01/29 01:12:53;;;;;;;6.07;3.30;;;;;;;-2.26;74.93;101225.34;4987781;28;20104;-57
2024/01/29 01:15:19;;;;;;;9.50;4.38;;;;;;;-2.12;75.07;101246.28;5004867;28;20175;-53
2024/01/29 01:17:46;;;;;;;4.85;2.50;;;;;;;-2.16;75.21;101254.59;5004969;28;20037;-53
2024/01/29 01:20:12;;;;;;;6.70;3.33;;;;;;;-2.23;75.51;101250.03;5006036;28;20049;-57
2024/01/29 01:22:38;;;;;;;9.20;3.53;;;;;;;-2.26;75.56;101273.72;5006018;28;20501;-53
2024/01/29 01:25:05;;;;;;;12.63;4.07;;;;;;;-2.54;75.89;101239.38;5004696;28;20052;-53
2024/01/29 01:27:34;;;;;;;5.32;1.70;;;;;;;-2.56;76.10;101229.97;5003708;28;20090;-54
2024/01/29 01:29:59;;;;;;;9.68;3.92;;;;;;;-2.45;76.49;101255.03;4993972;28;20510;-55
2024/01/29 01:32:25;;;;;;;4.65;1.92;;;;;;;-2.48;76.81;101258.31;4968726;28;20081;-52
2024/01/29 01:34:51;;;;;;;11.40;4.25;;;;;;;-2.49;76.80;101266.75;4968825;28;20050;-55
2024/01/29 01:37:17;;;;;;;8.95;4.32;;;;;;;-2.41;77.15;101259.47;4985090;28;20096;-54
2024/01/29 01:39:43;;;;;;;10.00;4.00;;;;;;;-2.37;76.93;101264.75;4985169;28;20042;-55
2024/01/29 01:42:10;;;;;;;7.85;3.20;;;;;;;-2.31;76.98;101256.50;4986288;28;20549;-56
2024/01/29 01:44:36;;;;;;;4.15;2.25;;;;;;;-2.43;76.85;101236.47;4968938;28;20038;-53
2024/01/29 01:47:02;;;;;;;5.05;3.00;;;;;;;-2.53;76.87;101253.84;4998817;28;20045;-57
2024/01/29 01:49:29;;;;;;;7.50;3.63;;;;;;;-2.48;77.30;101260.88;4972361;28;20092;-55
2024/01/29 01:51:56;;;;;;;14.38;3.17;;;;;;;-2.45;77.39;101257.56;5004833;28;20581;-58
2024/01/29 01:54:22;;;;;;;8.05;3.83;;;;;;;-2.48;77.37;101252.34;4987992;28;20826;-55
2024/01/29 01:56:49;;;;;;;7.32;3.40;;;;;;;-2.59;77.28;101218.81;4988026;28;20045;-55
2024/01/29 01:59:15;;;;;;;8.68;3.80;;;;;;;-2.36;77.65;101258.00;5005753;28;20124;-55
2024/01/29 02:01:43;;;;;;;8.18;3.30;;;;;;;-2.45;77.41;101238.06;5004419;28;20141;-50
2024/01/29 02:04:09;;;;;;;8.38;4.03;;;;;;;-2.39;77.36;101251.06;4967725;28;20180;-56
2024/01/29 02:06:35;;;;;;;7.70;3.05;;;;;;;-2.40;77.34;101268.81;4985410;28;20137;-54
2024/01/29 02:09:01;;;;;;;7.82;3.70;;;;;;;-2.53;77.48;101262.34;4969180;28;20053;-52
2024/01/29 02:11:27;;;;;;;5.95;2.55;;;;;;;-2.52;77.93;101261.56;4968989;28;20510;-52
2024/01/29 02:13:53;;;;;;;8.70;4.00;;;;;;;-2.71;78.09;101231.00;4985099;28;20133;-54
2024/01/29 02:16:19;;;;;;;9.00;3.88;;;;;;;-2.37;77.81;101276.63;4968912;28;20133;-56
2024/01/29 02:18:45;;;;;;;7.47;3.83;;;;;;;-2.32;77.72;101264.94;4984545;28;20046;-51
2024/01/29 02:21:11;;;;;;;8.07;3.83;;;;;;;-2.24;77.63;101267.00;4975986;28;20048;-52
2024/01/29 02:23:37;;;;;;;7.47;3.67;;;;;;;-2.24;77.39;101256.81;5004394;28;20037;-54
2024/01/29 02:26:03;;;;;;;7.93;3.83;;;;;;;-2.35;77.33;101250.38;5004610;28;20042;-56
2024/01/29 02:28:29;;;;;;;7.65;2.90;;;;;;;-2.32;77.55;101259.84;4986475;28;20076;-55
2024/01/29 02:30:55;;;;;;;5.40;2.67;;;;;;;-2.42;77.33;101256.06;4970232;28;20037;-54
2024/01/29 02:33:21;;;;;;;5.85;3.35;;;;;;;-2.43;77.41;101253.44;5002771;28;20046;-52
2024/01/29 02:35:47;;;;;;;6.30;2.97;;;;;;;-2.46;77.49;101256.69;4987842;28;20406;-57
2024/01/29 02:38:13;;;;;;;6.47;2.75;;;;;;;-2.52;77.95;101266.66;4965590;28;20062;-53
2024/01/29 02:40:39;;;;;;;7.05;2.70;;;;;;;-2.56;77.91;101255.44;4989464;28;20034;-55
2024/01/29 02:43:05;;;;;;;7.30;3.25;;;;;;;-2.61;78.22;101262.00;4988067;28;20494;-53
2024/01/29 02:45:30;;;;;;;11.40;4.47;;;;;;;-2.61;78.33;101251.81;4988085;28;20532;-53
2024/01/29 02:47:56;;;;;;;7.40;2.95;;;;;;;-2.60;78.36;101250.16;4988095;28;20038;-56
2024/01/29 02:50:22;;;;;;;5.47;3.03;;;;;;;-2.67;78.59;101241.38;4972060;28;20042;-57
2024/01/29 02:52:49;;;;;;;9.93;3.42;;;;;;;-2.65;78.70;101244.00;4987994;28;20065;-52
2024/01/29 02:55:15;;;;;;;9.02;3.45;;;;;;;-2.63;78.60;101257.66;4985589;28;20037;-53
2024/01/29 02:57:40;;;;;;;4.90;2.53;;;;;;;-2.62;78.88;101259.41;5007848;28;20095;-53
2024/01/29 03:00:07;;;;;;;5.50;2.53;;;;;;;-2.67;78.92;101249.00;5008071;28;20830;-56
2024/01/29 03:02:33;;;;;;;6.32;2.78;;;;;;;-2.71;78.90;101243.72;5008268;28;20077;-53
2024/01/29 03:04:59;;;;;;;8.90;3.90;;;;;;;-2.78;79.67;101250.25;5006423;28;20084;-51
2024/01/29 03:07:25;;;;;;;4.72;2.33;;;;;;;-2.94;79.55;101214.72;4990938;28;20048;-55
2024/01/29 03:09:51;;;;;;;11.18;4.05;;;;;;;-2.80;79.73;101238.22;5007321;28;20144;-53
2024/01/29 03:12:17;;;;;;;5.32;3.40;;;;;;;-2.81;79.91;101236.47;4976951;28;20045;-54
2024/01/29 03:14:43;;;;;;;8.80;3.35;;;;;;;-3.00;80.06;101194.09;4987977;28;20042;-55
2024/01/29 03:17:08;;;;;;;12.05;3.83;;;;;;;-2.72;80.32;101236.91;4939235;28;20045;-55
2024/01/29 03:19:34;;;;;;;7.28;3.58;;;;;;;-2.85;80.14;101211.72;4971366;28;20046;-53
2024/01/29 03:22:00;;;;;;;9.65;4.15;;;;;;;-3.00;79.80;101194.09;4988557;28;20553;-56
2024/01/29 03:24:26;;;;;;;8.20;3.53;;;;;;;-2.67;80.23;101238.81;4971352;28;20038;-52
2024/01/29 03:26:52;;;;;;;7.93;3.42;;;;;;;-2.58;80.09;101241.78;4970912;28;20054;-54
2024/01/29 03:29:18;;;;;;;9.90;3.22;;;;;;;-2.62;79.92;101241.59;4995678;28;20062;-50
2024/01/29 03:31:44;;;;;;;8.05;2.92;;;;;;;-2.65;79.68;101242.31;4988911;28;20035;-55
2024/01/29 03:34:10;;;;;;;8.50;3.25;;;;;;;-2.68;79.84;101242.19;4971028;28;20601;-51
2024/01/29 03:36:36;;;;;;;9.68;4.00;;;;;;;-2.69;80.20;101242.13;4955958;28;20046;-58
2024/01/29 03:39:03;;;;;;;3.28;1.85;;;;;;;-2.76;79.90;101237.56;4990479;28;20051;-58
2024/01/29 03:41:29;;;;;;;6.55;2.83;;;;;;;-2.90;79.95;101214.06;5006545;28;20514;-55
2024/01/29 03:43:55;;;;;;;11.32;4.18;;;;;;;-2.76;80.24;101240.97;5006728;28;20046;-56
2024/01/29 03:46:21;;;;;;;6.00;2.97;;;;;;;-2.88;80.39;101199.75;4991901;28;20403;-58
2024/01/29 03:48:46;;;;;;;7.28;3.85;;;;;;;-2.63;80.44;101229.66;4988472;28;20104;-55
2024/01/29 03:51:12;;;;;;;8.10;3.83;;;;;;;-2.58;80.05;101223.09;4987309;28;20502;-54
2024/01/29 03:53:39;;;;;;;6.25;3.20;;;;;;;-2.76;80.17;101194.28;4991693;28;20046;-54
2024/01/29 03:56:05;;;;;;;3.47;1.75;;;;;;;-2.57;80.00;101219.75;4999606;28;20363;-56
2024/01/29 03:58:31;;;;;;;7.00;3.28;;;;;;;-2.56;80.07;101235.06;4999691;28;20699;-55
2024/01/29 04:01:00;;;;;;;8.40;4.10;;;;;;;-2.73;80.19;101192.78;4982279;28;20058;-58
2024/01/29 04:03:26;;;;;;;4.93;2.63;;;;;;;-2.73;79.77;101212.25;4991716;28;20044;-53
2024/01/29 04:05:52;;;;;;;9.02;3.58;;;;;;;-2.49;79.87;101250.63;4985643;28;20285;-58
2024/01/29 04:08:17;;;;;;;8.75;3.63;;;;;;;-2.42;79.98;101243.31;5006045;28;20037;-55
2024/01/29 04:10:43;;;;;;;7.68;3.75;;;;;;;-2.37;79.67;101248.59;5007201;28;20977;-56
2024/01/29 04:13:09;;;;;;;6.15;3.17;;;;;;;-2.38;79.55;101245.19;5005143;28;20033;-61
2024/01/29 04:15:35;;;;;;;8.65;4.05;;;;;;;-2.61;79.31;101208.53;5005066;28;20073;-56
2024/01/29 04:18:01;;;;;;;8.57;3.83;;;;;;;-2.41;79.36;101245.06;4995949;28;20046;-59
2024/01/29 04:20:27;;;;;;;2.78;1.88;;;;;;;-2.34;79.15;101251.25;5011537;28;20481;-56
2024/01/29 04:22:53;;;;;;;7.43;3.22;;;;;;;-2.44;79.03;101237.28;4996095;28;20407;-52
2024/01/29 04:25:19;;;;;;;8.60;3.70;;;;;;;-2.38;78.88;101254.50;4995058;28;20061;-60
2024/01/29 04:27:46;;;;;;;4.88;2.53;;;;;;;-2.35;78.89;101258.03;4999324;28;20640;-57
2024/01/29 04:30:13;;;;;;;5.88;2.90;;;;;;;-2.54;78.68;101224.97;4979019;28;20568;-58
2024/01/29 04:32:39;;;;;;;8.55;3.70;;;;;;;-2.37;78.72;101261.34;4990211;28;20033;-60
2024/01/29 04:35:05;;;;;;;7.35;2.95;;;;;;;-2.38;78.75;101247.72;5007356;28;20048;-58
2024/01/29 04:37:31;;;;;;;6.22;3.05;;;;;;;-2.43;78.84;101244.13;4997624;28;20053;-57
2024/01/29 04:39:57;;;;;;;6.80;3.17;;;;;;;-2.67;78.93;101209.97;4989188;28;20498;-59
2024/01/29 04:42:23;;;;;;;5.28;2.72;;;;;;;-2.50;79.27;101242.09;4971743;28;20525;-56
2024/01/29 04:44:49;;;;;;;7.50;3.75;;;;;;;-2.73;79.25;101196.97;5005440;28;20043;-60
2024/01/29 04:47:15;;;;;;;8.07;3.08;;;;;;;-2.45;79.32;101237.19;5004832;28;20037;-60
2024/01/29 04:49:41;;;;;;;14.30;3.63;;;;;;;-2.68;79.17;101208.22;4989128;28;20046;-60
2024/01/29 04:52:07;;;;;;;9.65;3.20;;;;;;;-2.45;79.39;101234.66;4989010;28;20060;-53
2024/01/29 04:54:33;;;;;;;8.95;3.67;;;;;;;-2.40;79.53;101234.03;4972458;28;20483;-57
2024/01/29 04:56:59;;;;;;;9.68;3.47;;;;;;;-2.40;79.51;101233.16;4985700;28;20042;-58
2024/01/29 04:59:25;;;;;;;7.03;3.10;;;;;;;-2.61;79.55;101200.03;4969318;28;20049;-56
2024/01/29 05:01:52;;;;;;;5.68;2.58;;;;;;;-2.36;79.69;101238.50;4968701;28;20054;-59
2024/01/29 05:04:17;;;;;;;11.98;4.82;;;;;;;-2.28;79.57;101238.78;4990189;28;20076;-57
2024/01/29 05:06:43;;;;;;;7.93;4.07;;;;;;;-2.33;79.45;101230.97;4956806;28;20085;-56
2024/01/29 05:09:09;;;;;;;8.48;4.05;;;;;;;-2.34;79.42;101219.03;5004601;28;20038;-59
2024/01/29 05:11:37;;;;;;;9.20;3.58;;;;;;;-2.55;79.32;101205.38;4971639;28;20328;-58
2024/01/29 05:14:03;;;;;;;7.45;3.67;;;;;;;-2.59;79.67;101213.72;4969444;28;20081;-59
2024/01/29 05:16:29;;;;;;;6.85;2.83;;;;;;;-2.43;79.94;101235.59;4985147;28;20084;-56
2024/01/29 05:18:55;;;;;;;6.70;2.97;;;;;;;-2.44;80.13;101232.19;4985182;28;20805;-61
2024/01/29 05:21:21;;;;;;;6.68;3.03;;;;;;;-2.53;80.10;101198.69;4952397;28;20042;-60
2024/01/29 05:23:47;;;;;;;5.70;2.58;;;;;;;-2.58;80.29;101190.88;4968597;28;20090;-59
2024/01/29 05:26:13;;;;;;;10.25;3.13;;;;;;;-2.59;80.74;101194.22;4969269;28;20425;-62
2024/01/29 05:28:39;;;;;;;12.13;3.75;;;;;;;-2.34;80.44;101229.22;5002031;28;20040;-61
2024/01/29 05:31:05;;;;;;;11.93;4.05;;;;;;;-2.30;80.34;101233.63;5004500;28;20045;-57
2024/01/29 05:33:31;;;;;;;7.97;2.67;;;;;;;-2.57;80.42;101179.03;5004231;28;20038;-60
2024/01/29 05:35:57;;;;;;;7.05;3.75;;;;;;;-2.27;80.28;101233.78;4987085;28;20057;-58
2024/01/29 05:38:25;;;;;;;9.63;3.58;;;;;;;-2.23;80.47;101234.75;5005665;28;20065;-56
2024/01/29 05:40:51;;;;;;;8.00;3.72;;;;;;;-2.23;80.28;101240.72;4988356;28;20080;-58
2024/01/29 05:43:17;;;;;;;10.63;4.35;;;;;;;-2.44;80.13;101210.94;4988188;28;20046;-58
2024/01/29 05:45:42;;;;;;;8.15;3.25;;;;;;;-2.27;80.12;101240.53;4988546;28;20034;-59
2024/01/29 05:48:09;;;;;;;6.88;3.47;;;;;;;-2.19;80.05;101252.78;4984926;28;20050;-60
2024/01/29 05:50:35;;;;;;;7.90;3.50;;;;;;;-2.19;79.88;101257.00;5002070;28;20088;-56
2024/01/29 05:53:01;;;;;;;10.27;4.00;;;;;;;-2.19;79.99;101260.44;4971108;28;20046;-60
2024/01/29 05:55:27;;;;;;;5.63;2.65;;;;;;;-2.19;79.86;101255.31;4986545;28;20046;-58
2024/01/29 05:57:53;;;;;;;5.05;2.42;;;;;;;-2.19;80.15;101262.09;4952509;28;20050;-58
2024/01/29 06:00:20;;;;;;;6.57;3.20;;;;;;;-2.37;80.31;101234.19;4953035;28;20038;-59
2024/01/29 06:02:48;;;;;;;4.35;2.28;;;;;;;-2.19;79.99;101262.97;4986920;28;20676;-58
2024/01/29 06:05:14;;;;;;;10.18;4.22;;;;;;;-2.15;80.26;101269.09;4993114;28;20038;-60
2024/01/29 06:07:40;;;;;;;7.22;3.38;;;;;;;-2.10;80.25;101265.06;4952281;28;20042;-59
2024/01/29 06:10:12;;;;;;;7.13;3.28;;;;;;;-2.10;80.12;101270.16;4984663;28;20080;-57
2024/01/29 06:12:38;;;;;;;18.80;5.82;;;;;;;-2.07;80.19;101270.25;4984886;28;20050;-58
2024/01/29 06:15:05;;;;;;;5.78;2.95;;;;;;;-2.04;80.12;101270.38;4988045;28;20046;-58
2024/01/29 06:17:34;;;;;;;8.18;2.83;;;;;;;-1.98;80.24;101267.22;4990515;28;20048;-61
2024/01/29 06:20:01;;;;;;;11.65;3.83;;;;;;;-2.16;80.28;101224.91;4989493;28;20046;-61
2024/01/29 06:22:31;;;;;;;8.90;3.50;;;;;;;-1.95;79.94;101262.25;4987644;28;20057;-60
2024/01/29 06:24:57;;;;;;;8.73;4.07;;;;;;;-1.88;80.03;101260.00;4989605;28;20046;-58
2024/01/29 06:27:23;;;;;;;8.73;3.78;;;;;;;-1.96;80.04;101225.72;4989637;28;20038;-58
2024/01/29 06:29:49;;;;;;;5.80;3.35;;;;;;;-1.84;79.42;101253.38;5000530;28;20466;-56
2024/01/29 06:32:15;;;;;;;6.40;3.22;;;;;;;-1.81;79.62;101261.13;5008931;28;20045;-60
2024/01/29 06:34:42;;;;;;;9.35;3.45;;;;;;;-1.78;79.51;101256.19;4973681;28;20053;-59
2024/01/29 06:37:07;;;;;;;8.50;3.50;;;;;;;-1.74;79.41;101246.16;4993439;28;20038;-61
2024/01/29 06:39:33;;;;;;;10.98;3.00;;;;;;;-1.66;79.25;101256.66;5007436;28;20045;-57
2024/01/29 06:41:59;;;;;;;9.23;4.55;;;;;;;-1.67;79.18;101256.59;4991000;28;20038;-57
2024/01/29 06:44:25;;;;;;;9.20;4.75;;;;;;;-1.92;79.04;101204.63;5006974;28;20219;-59
2024/01/29 06:46:51;;;;;;;7.40;2.40;;;;;;;-1.69;78.74;101245.47;5009061;28;20042;-58
2024/01/29 06:49:30;;;;;;;10.10;4.45;;;;;;;-1.75;78.84;101235.91;5007436;28;20053;-60
2024/01/29 06:51:56;;;;;;;3.35;2.00;;;;;;;-1.79;78.59;101247.66;5003703;28;20038;-58
2024/01/29 06:54:22;;;;;;;7.38;3.38;;;;;;;-1.84;79.03;101226.22;4971303;28;20056;-58
2024/01/29 06:56:48;;;;;;;7.65;3.22;;;;;;;-2.24;79.42;101159.16;4990953;28;20041;-58
2024/01/29 06:59:14;;;;;;;5.30;2.70;;;;;;;-1.83;79.61;101216.84;4981487;28;20048;-60
2024/01/29 07:01:40;;;;;;;6.28;3.03;;;;;;;-1.85;79.04;101224.47;4981286;28;20050;-59
2024/01/29 07:04:06;;;;;;;10.48;3.97;;;;;;;-2.02;79.38;101176.16;4995765;28;20042;-61
2024/01/29 07:06:31;;;;;;;10.55;3.38;;;;;;;-1.81;79.09;101217.81;4988064;28;20046;-59
2024/01/29 07:08:57;;;;;;;5.20;2.60;;;;;;;-1.81;79.30;101223.78;4974860;28;20072;-60
2024/01/29 07:11:23;;;;;;;7.93;2.55;;;;;;;-2.05;79.64;101173.50;5008242;28;20149;-60
2024/01/29 07:13:50;;;;;;;7.13;3.22;;;;;;;-2.10;79.36;101149.53;5006924;28;20041;-57
2024/01/29 07:16:16;;;;;;;8.07;3.78;;;;;;;-1.65;79.37;101224.38;5008121;28;20045;-59
2024/01/29 07:18:42;;;;;;;5.10;2.88;;;;;;;-1.63;78.89;101226.19;5006453;28;20077;-60
2024/01/29 07:21:11;;;;;;;7.63;3.28;;;;;;;-1.65;78.98;101215.06;5007675;28;20064;-60
2024/01/29 07:23:38;;;;;;;4.22;2.40;;;;;;;-1.62;79.09;101225.34;5006788;28;20069;-61
2024/01/29 07:26:04;;;;;;;6.75;3.08;;;;;;;-1.57;78.95;101228.13;5005969;28;20045;-59
2024/01/29 07:28:31;;;;;;;3.80;1.95;;;;;;;-1.70;78.94;101211.44;4990278;28;20041;-59
2024/01/29 07:30:57;;;;;;;5.63;2.55;;;;;;;-1.58;78.57;101236.56;5006930;28;20060;-61
2024/01/29 07:33:23;;;;;;;4.85;1.75;;;;;;;-2.00;78.76;101160.16;4990312;28;20514;-61
2024/01/29 07:35:49;;;;;;;8.18;3.05;;;;;;;-1.66;78.94;101231.16;5007974;28;20072;-57
2024/01/29 07:38:15;;;;;;;6.00;2.72;;;;;;;-1.60;79.03;101231.41;4989801;28;20076;-57
2024/01/29 07:40:41;;;;;;;9.30;3.55;;;;;;;-1.67;78.64;101228.56;4989456;28;20053;-60
2024/01/29 07:43:07;;;;;;;7.32;2.78;;;;;;;-1.66;78.83;101223.50;5005943;28;20137;-59
2024/01/29 07:45:33;;;;;;;4.00;2.33;;;;;;;-1.66;79.01;101233.69;4973969;28;20042;-62
2024/01/29 07:48:00;;;;;;;5.80;2.97;;;;;;;-1.66;79.03;101220.94;4989978;28;20110;-58
2024/01/29 07:50:27;;;;;;;6.97;2.63;;;;;;;-1.80;79.30;101197.47;5007517;28;20430;-61
2024/01/29 07:52:53;;;;;;;9.02;3.60;;;;;;;-1.51;79.42;101223.22;4990190;28;20132;-58
2024/01/29 07:55:22;;;;;;;8.05;3.70;;;;;;;-1.33;79.24;101226.50;4990400;28;20045;-61
2024/01/29 07:57:48;;;;;;;8.18;3.30;;;;;;;-1.43;78.55;101222.72;5006521;28;20455;-57
2024/01/29 08:00:14;;;;;;;9.00;3.45;;;;;;;-1.70;78.45;101173.22;5005225;28;20092;-58
2024/01/29 08:02:40;;;;;;;5.90;2.75;;;;;;;-1.47;78.69;101217.44;5004955;28;20116;-60
2024/01/29 08:05:06;;;;;;;5.13;2.47;;;;;;;-1.52;78.86;101224.06;5006779;28;20069;-58
2024/01/29 08:07:32;;;;;;;7.35;3.28;;;;;;;-1.52;79.03;101211.31;5006857;28;20053;-60
2024/01/29 08:10:01;;;;;;;7.05;3.90;;;;;;;-1.53;78.82;101204.47;4998962;28;20038;-62
2024/01/29 08:12:31;;;;;;;9.07;3.70;;;;;;;-1.51;79.01;101213.03;4988030;28;20073;-63
2024/01/29 08:14:57;;;;;;;13.70;4.55;;;;;;;-1.68;79.13;101176.69;4994011;28;20518;-61
2024/01/29 08:17:22;;;;;;;10.10;3.33;;;;;;;-1.39;79.02;101208.41;4993401;28;20054;-62
2024/01/29 08:19:48;;;;;;;10.43;4.25;;;;;;;-1.39;78.76;101216.94;4995072;28;20041;-63
2024/01/29 08:22:14;;;;;;;6.60;3.00;;;;;;;-1.33;78.76;101209.50;4968856;28;20092;-63
2024/01/29 08:24:40;;;;;;;8.30;3.63;;;;;;;-1.72;78.46;101174.81;4998362;28;20445;-61
2024/01/29 08:27:06;;;;;;;7.90;2.42;;;;;;;-1.47;78.90;101225.09;4995657;28;20056;-64
2024/01/29 08:29:32;;;;;;;4.30;2.38;;;;;;;-1.47;78.75;101233.63;4979070;28;20403;-62
2024/01/29 08:31:58;;;;;;;4.72;1.80;;;;;;;-1.52;78.62;101224.06;4991546;28;20503;-61
2024/01/29 08:34:24;;;;;;;5.78;2.50;;;;;;;-1.60;78.79;101215.22;4996390;28;20511;-62
2024/01/29 08:36:50;;;;;;;8.63;3.60;;;;;;;-1.53;79.22;101214.66;4991331;28;20160;-63
2024/01/29 08:39:17;;;;;;;10.20;3.75;;;;;;;-1.38;78.99;101205.91;5004070;28;20463;-62
2024/01/29 08:41:43;;;;;;;6.07;3.03;;;;;;;-1.30;78.71;101206.19;5006494;28;20054;-61
2024/01/29 08:44:09;;;;;;;5.03;2.80;;;;;;;-1.24;78.33;101203.88;5006981;28;20455;-60
2024/01/29 08:46:35;;;;;;;5.88;2.17;;;;;;;-1.36;77.95;101199.16;4976999;28;20149;-62
2024/01/29 08:49:02;;;;;;;7.20;3.63;;;;;;;-1.44;78.07;101213.31;4993837;28;20199;-61
2024/01/29 08:51:28;;;;;;;7.55;3.15;;;;;;;-1.66;78.55;101192.91;4996842;28;20073;-59
2024/01/29 08:53:54;;;;;;;6.18;3.10;;;;;;;-1.58;78.98;101205.97;4992979;28;20103;-57
2024/01/29 08:56:20;;;;;;;8.50;3.08;;;;;;;-1.78;78.90;101169.50;4993385;28;20152;-59
2024/01/29 08:58:45;;;;;;;8.07;3.88;;;;;;;-1.55;79.30;101206.06;4993751;28;20046;-58
2024/01/29 09:01:11;;;;;;;6.03;3.67;;;;;;;-1.56;79.19;101206.88;4996074;28;20831;-62
2024/01/29 09:03:37;;;;;;;3.65;2.28;;;;;;;-1.79;79.43;101167.75;4978867;28;20035;-62
2024/01/29 09:06:03;;;;;;;7.32;3.65;;;;;;;-1.53;79.54;101202.78;4979952;28;20490;-60
2024/01/29 09:08:31;;;;;;;9.77;3.15;;;;;;;-1.51;79.58;101195.16;4995226;28;20041;-63
2024/01/29 09:10:57;;;;;;;7.90;3.92;;;;;;;-1.69;79.50;101162.22;4992669;28;20046;-56
2024/01/29 09:13:23;;;;;;;10.65;4.07;;;;;;;-1.57;79.47;101200.06;4992975;28;20065;-61
2024/01/29 09:15:49;;;;;;;5.57;3.03;;;;;;;-1.67;79.90;101146.97;4990051;28;20488;-57
2024/01/29 09:18:15;;;;;;;9.43;3.95;;;;;;;-1.45;79.09;101186.06;4994364;28;20049;-60
2024/01/29 09:20:41;;;;;;;7.30;3.50;;;;;;;-1.49;79.44;101180.81;4996271;28;20073;-60
2024/01/29 09:23:07;;;;;;;6.78;3.15;;;;;;;-1.57;79.37;101184.75;4985837;28;20048;-52
2024/01/29 09:25:33;;;;;;;10.90;4.47;;;;;;;-1.63;79.72;101180.28;5001898;28;20041;-62
2024/01/29 09:27:59;;;;;;;9.90;4.65;;;;;;;-1.58;80.21;101177.91;4995891;28;20104;-62
2024/01/29 09:30:25;;;;;;;9.13;4.43;;;;;;;-1.63;79.59;101194.72;4981487;28;20050;-60
2024/01/29 09:32:51;;;;;;;13.63;4.35;;;;;;;-1.76;79.97;101184.03;4977040;28;20477;-57
2024/01/29 09:35:17;;;;;;;8.02;4.35;;;;;;;-1.68;80.64;101176.69;4996324;28;20077;-60
2024/01/29 09:37:43;;;;;;;7.13;3.40;;;;;;;-1.66;80.51;101184.38;4992694;28;20034;-54
2024/01/29 09:40:13;;;;;;;5.93;2.70;;;;;;;-1.64;80.56;101178.56;4963185;28;20042;-54
2024/01/29 09:42:40;;;;;;;7.75;3.42;;;;;;;-1.54;80.78;101169.56;4995117;28;20048;-56
2024/01/29 09:45:08;;;;;;;7.88;2.67;;;;;;;-1.49;80.36;101173.16;4961896;28;20525;-63
2024/01/29 09:47:35;;;;;;;7.88;3.58;;;;;;;-1.54;79.84;101169.56;4960677;28;20065;-63
2024/01/29 09:50:02;;;;;;;10.85;3.30;;;;;;;-1.87;79.88;101136.88;4997917;28;20078;-62
2024/01/29 09:52:30;;;;;;;6.38;3.03;;;;;;;-1.70;80.19;101157.91;4999090;28;20037;-63
2024/01/29 09:54:57;;;;;;;9.13;3.72;;;;;;;-1.82;80.17;101150.66;5002238;28;20092;-57
2024/01/29 09:57:22;;;;;;;8.43;4.13;;;;;;;-1.76;80.60;101145.78;4980807;28;20036;-47
2024/01/29 09:59:48;;;;;;;9.10;4.00;;;;;;;-1.76;79.99;101168.75;5000966;28;20050;-62
2024/01/29 10:02:17;;;;;;;6.90;3.72;;;;;;;-1.91;80.28;101154.53;5005454;28;20042;-62
2024/01/29 10:04:43;;;;;;;8.77;3.50;;;;;;;-1.87;80.32;101162.34;4998965;28;20506;-62
2024/01/29 10:07:10;;;;;;;9.45;3.60;;;;;;;-1.75;80.52;101154.31;4980621;28;20042;-57
2024/01/29 10:09:36;;;;;;;6.97;2.78;;;;;;;-1.68;79.90;101152.88;4964756;28;20081;-60
2024/01/29 10:12:03;;;;;;;8.50;3.58;;;;;;;-1.89;79.82;101125.75;4997947;28;20398;-60
2024/01/29 10:14:28;;;;;;;8.43;3.78;;;;;;;-1.64;79.56;101177.69;4985260;28;20145;-61
2024/01/29 10:16:54;;;;;;;11.77;5.05;;;;;;;-1.64;79.51;101162.38;5003212;28;20156;-59
2024/01/29 10:19:21;;;;;;;4.60;2.45;;;;;;;-1.48;79.40;101164.69;4997128;28;20038;-61
2024/01/29 10:21:47;;;;;;;3.88;1.98;;;;;;;-1.78;78.81;101123.63;4999939;28;20065;-62
2024/01/29 10:24:15;;;;;;;3.97;2.70;;;;;;;-1.58;78.93;101148.19;4997521;28;20074;-60
2024/01/29 10:26:42;;;;;;;4.45;2.00;;;;;;;-1.65;78.62;101164.06;4999391;28;20137;-59
2024/01/29 10:29:09;;;;;;;8.90;4.05;;;;;;;-1.86;78.29;101143.72;4976136;28;20125;-61
2024/01/29 10:31:35;;;;;;;5.00;2.60;;;;;;;-1.85;79.44;101145.44;4990751;28;20033;-60
2024/01/29 10:34:03;;;;;;;7.35;3.40;;;;;;;-1.92;79.47;101138.38;4996489;28;20041;-59
2024/01/29 10:36:29;;;;;;;3.58;2.20;;;;;;;-1.90;79.33;101139.31;4967260;28;20128;-52
2024/01/29 10:38:57;;;;;;;7.72;3.28;;;;;;;-1.92;79.57;101129.84;5000543;28;20066;-54
2024/01/29 10:41:24;;;;;;;7.13;3.22;;;;;;;-1.93;79.60;101151.03;5000562;28;20133;-55
2024/01/29 10:43:51;;;;;;;8.45;4.18;;;;;;;-1.90;79.92;101143.53;4995744;28;20050;-54
2024/01/29 10:46:21;;;;;;;6.25;3.85;;;;;;;-1.87;79.61;101129.22;4998628;28;20041;-53
2024/01/29 10:48:48;;;;;;;10.45;3.75;;;;;;;-1.89;79.59;101140.19;4999699;28;20064;-52
2024/01/29 10:51:15;;;;;;;11.38;5.22;;;;;;;-1.99;79.66;101110.88;4979554;28;20049;-57
2024/01/29 10:53:43;;;;;;;10.30;4.15;;;;;;;-2.08;79.79;101114.75;4995806;28;20050;-55
2024/01/29 10:56:09;;;;;;;5.88;2.90;;;;;;;-2.45;80.27;101042.00;4999099;28;20069;-55
2024/01/29 10:58:37;;;;;;;6.95;2.63;;;;;;;-2.15;80.61;101099.22;4954962;28;20084;-59
2024/01/29 11:01:07;;;;;;;6.20;2.80;;;;;;;-2.12;80.83;101116.34;5001955;28;20042;-59
2024/01/29 11:03:35;;;;;;;8.50;3.00;;;;;;;-2.16;80.98;101104.28;4959539;28;20042;-54
2024/01/29 11:06:07;;;;;;;9.73;3.80;;;;;;;-2.13;80.83;101095.06;5006311;28;20038;-57
2024/01/29 11:08:35;;;;;;;7.35;3.58;;;;;;;-2.18;80.67;101113.53;4990765;28;20043;-57
2024/01/29 11:11:01;;;;;;;7.18;3.88;;;;;;;-2.31;81.08;101119.84;5000846;28;20041;-56
2024/01/29 11:13:28;;;;;;;8.20;3.88;;;;;;;-2.32;81.83;101107.03;5006871;28;20581;-60
2024/01/29 11:15:55;;;;;;;10.40;4.75;;;;;;;-2.30;82.17;101116.47;5005113;28;20045;-57
2024/01/29 11:18:21;;;;;;;8.95;3.83;;;;;;;-2.35;82.13;101112.88;4978291;28;20038;-56
2024/01/29 11:20:50;;;;;;;6.82;3.20;;;;;;;-2.33;82.27;101113.81;4971192;28;20057;-59